Sand Point, AK

5:05 AM AKST on February 10, 2016 (GMT -0900)
Sand Point | | Change Station
CLOSE
Current Station
Airport
Location: Sand Point,
Elevation: 23 ft
Nearby Weather Stations

Elev 23 ft 55.31 °N, 160.52 °W | Updated 9 minutes ago

Overcast
Overcast
41 °F
Feels Like 34 °F
N
14
Wind Variable Wind from North
Gusts 21 mph

Today
High -- | Low -- °F
--% Chance of Precip.
Yesterday
High -- | Low -- °F
Precip. -- in
Pressure 29.11 in
Visibility 10.0 miles
Clouds Overcast 3800 ft
Windchill 34 °F
Dew Point 36 °F
Humidity 81%
Rainfall 0.00 in
Snow Depth Not available.
9:16 AM 6:36 PM
Waxing Crescent, 5% visible
METAR PASD 101356Z AUTO 01012G18KT 10SM OVC038 05/02 A2911 RMK AO1
Pressure 29.11 in
Visibility 10.0 miles
Clouds Overcast 3800 ft
Windchill 34 °F
Dew Point 36 °F
Humidity 81%
Rainfall 0.00 in
Snow Depth Not available.
9:16 AM 6:36 PM
Waxing Crescent, 5% visible
METAR PASD 101356Z AUTO 01012G18KT 10SM OVC038 05/02 A2911 RMK AO1

10-Day Weather Forecast

Almanac

Astronomy

Feb. 10, 2016 Rise Set
Actual Time
Civil Twilight
Nautical Twilight
Astronomical Twilight
Moon
Length of Visible Light
Length of Day
Tomorrow will be .
, % of the Moon is Illuminated

Today's Extremes

State Highs State Lows

Community

WunderPhotos

Upload Photos

1,891,846 photos uploaded!

WunderBlog® & News

Nearby

Air Quality

  Air Quality AQ Index Pollutant
Not available.

Snow Depth

Station Depth Elevation

Earthquake Activity

City Distance Mag. Time & Date
Minimum magnitude displayed is 2.5.

Coastal Water Temperatures

Place Temperature

Stations

Nearby Weather Stations

Station Location Temp. Windchill Dew Point Humidity Wind Precip. Elev Updated Type
                   

Watches & Warnings

There are currently no watches in effect.